createdAt,value
2023-03-29T00:00:34.315Z,-2.55
2023-03-29T00:03:16.407Z,-2.56
2023-03-29T00:05:45.032Z,-2.57
2023-03-29T00:08:14.855Z,-2.59
2023-03-29T00:10:43.108Z,-2.61
2023-03-29T00:13:11.762Z,-2.61
2023-03-29T00:15:41.724Z,-2.61
2023-03-29T00:18:09.809Z,-2.62
2023-03-29T00:20:37.851Z,-2.62
2023-03-29T00:23:06.337Z,-2.61
2023-03-29T00:25:34.665Z,-2.58
2023-03-29T00:28:02.771Z,-2.55
2023-03-29T00:30:30.692Z,-2.54
2023-03-29T00:32:58.740Z,-2.53
2023-03-29T00:35:27.214Z,-2.52
2023-03-29T00:37:55.390Z,-2.49
2023-03-29T00:40:23.758Z,-2.47
2023-03-29T00:42:51.779Z,-2.46
2023-03-29T00:45:25.253Z,-2.45
2023-03-29T00:48:00.253Z,-2.45
2023-03-29T00:50:29.806Z,-2.47
2023-03-29T00:53:16.620Z,-2.47
2023-03-29T00:55:55.032Z,-2.47
2023-03-29T00:58:29.759Z,-2.45
2023-03-29T01:01:02.468Z,-2.42
2023-03-29T01:03:41.518Z,-2.39
2023-03-29T01:06:11.530Z,-2.39
2023-03-29T01:08:54.796Z,-2.39
2023-03-29T01:11:28.452Z,-2.39
2023-03-29T01:14:06.894Z,-2.41
2023-03-29T01:19:10.436Z,-2.43
2023-03-29T01:22:13.593Z,-2.47
2023-03-29T01:25:00.400Z,-2.47
2023-03-29T01:27:40.696Z,-2.44
2023-03-29T01:30:14.938Z,-2.49
2023-03-29T01:32:52.962Z,-2.51
2023-03-29T01:35:32.731Z,-2.58
2023-03-29T01:38:13.431Z,-2.56
2023-03-29T01:40:42.211Z,-2.58
2023-03-29T01:43:26.757Z,-2.59
2023-03-29T01:46:07.537Z,-2.58
2023-03-29T01:48:53.942Z,-2.57
2023-03-29T01:51:30.640Z,-2.59
2023-03-29T01:54:08.388Z,-2.54
2023-03-29T01:56:40.700Z,-2.53
2023-03-29T01:59:14.717Z,-2.52
2023-03-29T02:01:49.594Z,-2.54
2023-03-29T02:04:21.052Z,-2.56
2023-03-29T02:06:54.865Z,-2.52
2023-03-29T02:09:23.527Z,-2.51
2023-03-29T02:11:53.230Z,-2.59
2023-03-29T02:14:22.273Z,-2.57
2023-03-29T02:16:50.293Z,-2.56
2023-03-29T02:19:19.937Z,-2.57
2023-03-29T02:21:56.859Z,-2.65
2023-03-29T02:24:26.365Z,-2.63
2023-03-29T02:26:54.641Z,-2.68
2023-03-29T02:29:22.611Z,-2.69
2023-03-29T02:31:58.686Z,-2.71
2023-03-29T02:34:30.398Z,-2.72
2023-03-29T02:37:08.511Z,-2.77
2023-03-29T02:39:38.367Z,-2.75
2023-03-29T02:42:07.527Z,-2.82
2023-03-29T02:44:39.876Z,-2.81
2023-03-29T02:47:17.428Z,-2.84
2023-03-29T02:49:45.656Z,-2.83
2023-03-29T02:52:23.838Z,-2.89
2023-03-29T02:54:56.557Z,-2.85
2023-03-29T02:57:28.762Z,-2.86
2023-03-29T02:59:57.749Z,-2.84
2023-03-29T03:02:26.038Z,-2.78
2023-03-29T03:04:54.775Z,-2.78
2023-03-29T03:07:23.083Z,-2.76
2023-03-29T03:09:51.990Z,-2.74
2023-03-29T03:12:20.101Z,-2.72
2023-03-29T03:14:48.395Z,-2.72
2023-03-29T03:17:18.969Z,-2.71
2023-03-29T03:19:47.952Z,-2.75
2023-03-29T03:22:15.924Z,-2.76
2023-03-29T03:24:46.117Z,-2.77
2023-03-29T03:27:14.278Z,-2.73
2023-03-29T03:29:42.550Z,-2.74
2023-03-29T03:32:13.569Z,-2.73
2023-03-29T03:34:56.459Z,-2.75
2023-03-29T03:37:27.576Z,-2.76
2023-03-29T03:39:55.849Z,-2.82
2023-03-29T03:42:24.382Z,-2.77
2023-03-29T03:44:52.421Z,-2.81
2023-03-29T03:47:41.218Z,-2.86
2023-03-29T03:50:21.398Z,-2.92
2023-03-29T03:52:49.976Z,-2.84
2023-03-29T03:55:18.294Z,-2.89
2023-03-29T03:58:09.452Z,-2.91
2023-03-29T04:00:37.428Z,-2.90
2023-03-29T04:03:19.909Z,-2.99
2023-03-29T04:05:49.212Z,-3.01
2023-03-29T04:08:18.032Z,-3.07
2023-03-29T04:11:04.854Z,-3.15
2023-03-29T04:13:37.984Z,-3.20
2023-03-29T04:16:25.070Z,-3.23
2023-03-29T04:18:53.500Z,-3.29
2023-03-29T04:21:23.145Z,-3.35
2023-03-29T04:23:52.090Z,-3.43
2023-03-29T04:26:20.107Z,-3.47
2023-03-29T04:28:57.168Z,-3.54
2023-03-29T04:31:41.129Z,-3.57
2023-03-29T04:34:44.430Z,-3.65
2023-03-29T04:37:14.601Z,-3.67
2023-03-29T04:39:44.838Z,-3.73
2023-03-29T04:42:14.015Z,-3.76
2023-03-29T04:44:43.833Z,-3.78
2023-03-29T04:47:13.760Z,-3.80
2023-03-29T04:49:44.650Z,-3.78
2023-03-29T04:52:33.495Z,-3.78
2023-03-29T04:55:05.497Z,-3.78
2023-03-29T04:57:44.690Z,-3.77
2023-03-29T05:00:33.549Z,-3.76
2023-03-29T05:03:14.699Z,-3.74
2023-03-29T05:05:54.727Z,-3.75
2023-03-29T05:08:22.660Z,-3.74
2023-03-29T05:11:11.657Z,-3.70
2023-03-29T05:13:40.116Z,-3.69
2023-03-29T05:16:08.892Z,-3.67
2023-03-29T05:18:38.039Z,-3.62
2023-03-29T05:21:06.478Z,-3.59
2023-03-29T05:23:37.896Z,-3.59
2023-03-29T05:26:28.543Z,-3.56
2023-03-29T05:28:57.344Z,-3.52
2023-03-29T05:31:25.496Z,-3.45
2023-03-29T05:33:55.964Z,-3.39
2023-03-29T05:36:24.981Z,-3.34
2023-03-29T05:38:53.393Z,-3.30
2023-03-29T05:41:24.473Z,-3.22
2023-03-29T05:44:04.815Z,-3.05
2023-03-29T05:46:33.965Z,-2.91
2023-03-29T05:49:04.364Z,-2.77
2023-03-29T05:51:58.498Z,-2.71
2023-03-29T05:54:27.430Z,-2.61
2023-03-29T05:56:55.975Z,-2.52
2023-03-29T05:59:24.595Z,-2.41
2023-03-29T06:01:53.227Z,-2.37
2023-03-29T06:04:23.208Z,-2.38
2023-03-29T06:07:24.564Z,-2.41
2023-03-29T06:10:13.025Z,-2.43
2023-03-29T06:12:45.067Z,-2.35
2023-03-29T06:15:14.252Z,-2.24
2023-03-29T06:17:50.102Z,-2.27
2023-03-29T06:20:18.747Z,-2.24
2023-03-29T06:22:51.099Z,-2.20
2023-03-29T06:25:19.920Z,-2.17
2023-03-29T06:27:50.122Z,-2.25
2023-03-29T06:30:19.698Z,-2.13
2023-03-29T06:32:52.011Z,-2.06
2023-03-29T06:35:46.040Z,-2.07
2023-03-29T06:38:17.201Z,-2.01
2023-03-29T06:41:12.946Z,-2.00
2023-03-29T06:43:59.757Z,-2.03
2023-03-29T06:46:33.893Z,-2.05
2023-03-29T06:49:06.532Z,-2.06
2023-03-29T06:51:49.204Z,-2.03
2023-03-29T06:54:17.220Z,-2.14
2023-03-29T06:56:52.666Z,-2.03
2023-03-29T06:59:23.217Z,-1.91
2023-03-29T07:01:59.777Z,-1.88
2023-03-29T07:04:41.860Z,-1.95
2023-03-29T07:07:20.528Z,-1.81
2023-03-29T07:09:54.217Z,-1.80
2023-03-29T07:12:41.631Z,-1.79
2023-03-29T07:15:11.382Z,-1.75
2023-03-29T07:17:58.330Z,-1.81
2023-03-29T07:20:27.279Z,-1.80
2023-03-29T07:23:09.327Z,-1.81
2023-03-29T07:25:38.455Z,-1.85
2023-03-29T07:28:07.494Z,-1.86
2023-03-29T07:30:35.682Z,-1.86
2023-03-29T07:33:16.325Z,-1.76
2023-03-29T07:35:55.374Z,-1.63
2023-03-29T07:38:24.048Z,-1.54
2023-03-29T07:41:08.132Z,-1.52
2023-03-29T07:44:04.378Z,-1.44
2023-03-29T07:46:32.769Z,-1.42
2023-03-29T07:49:00.977Z,-1.35
2023-03-29T07:51:30.039Z,-1.38
2023-03-29T07:54:06.612Z,-1.36
2023-03-29T07:56:47.805Z,-1.24
2023-03-29T07:59:38.030Z,-1.22
2023-03-29T08:02:17.267Z,-1.21
2023-03-29T08:04:48.526Z,-1.20
2023-03-29T08:07:20.166Z,-1.12
2023-03-29T08:10:00.320Z,-1.15
2023-03-29T08:12:48.430Z,-1.18
2023-03-29T08:15:18.191Z,-1.00
2023-03-29T08:17:50.630Z,-0.96
2023-03-29T08:20:19.624Z,-0.90
2023-03-29T08:22:49.758Z,-0.79
2023-03-29T08:25:54.138Z,-0.73
2023-03-29T08:28:22.947Z,-0.76
2023-03-29T08:30:53.004Z,-0.84
2023-03-29T08:33:21.510Z,-0.82
2023-03-29T08:35:57.840Z,-0.76
2023-03-29T08:38:29.757Z,-0.62
2023-03-29T08:40:57.944Z,-0.59
2023-03-29T08:43:43.533Z,-0.57
2023-03-29T08:46:21.700Z,-0.75
2023-03-29T08:48:59.733Z,-0.73
2023-03-29T08:51:33.028Z,-0.53
2023-03-29T08:54:08.060Z,-0.47
2023-03-29T08:57:13.470Z,-0.40
2023-03-29T08:59:45.725Z,-0.31
2023-03-29T09:02:25.064Z,-0.35
2023-03-29T09:05:06.264Z,-0.37
2023-03-29T09:07:45.475Z,-0.28
2023-03-29T09:10:27.387Z,-0.43
2023-03-29T09:13:27.768Z,-0.34
2023-03-29T09:16:20.954Z,-0.39
2023-03-29T09:18:56.256Z,-0.40
2023-03-29T09:21:29.344Z,-0.34
2023-03-29T09:24:04.085Z,-0.17
2023-03-29T09:27:13.700Z,-0.06
2023-03-29T09:29:59.527Z,0.03
2023-03-29T09:33:01.051Z,0.28
2023-03-29T09:35:52.320Z,0.36
2023-03-29T09:38:22.996Z,0.55
2023-03-29T09:40:57.359Z,0.49
2023-03-29T09:43:32.500Z,0.72
2023-03-29T09:46:16.427Z,0.87
2023-03-29T09:48:50.207Z,0.74
2023-03-29T09:51:23.034Z,0.88
2023-03-29T09:53:51.681Z,0.86
2023-03-29T09:56:39.584Z,0.88
2023-03-29T09:59:16.335Z,0.93
2023-03-29T10:01:48.729Z,1.40
2023-03-29T10:04:17.615Z,1.61
2023-03-29T10:06:52.723Z,1.68
2023-03-29T10:09:24.899Z,1.64
2023-03-29T10:12:02.427Z,1.83
2023-03-29T10:14:42.617Z,2.13
2023-03-29T10:17:19.970Z,2.36
2023-03-29T10:19:51.242Z,2.00
2023-03-29T10:22:38.152Z,2.46
2023-03-29T10:25:15.372Z,2.55
2023-03-29T10:27:48.220Z,2.58
2023-03-29T10:30:24.993Z,2.14
2023-03-29T10:32:59.826Z,2.35
2023-03-29T10:35:33.710Z,2.41
2023-03-29T10:38:06.618Z,2.65
2023-03-29T10:40:42.302Z,2.77
2023-03-29T10:43:25.330Z,2.89
2023-03-29T10:46:11.016Z,3.19
2023-03-29T10:48:46.052Z,3.78
2023-03-29T10:51:15.503Z,3.28
2023-03-29T10:53:43.657Z,3.75
2023-03-29T10:56:33.028Z,3.32
2023-03-29T10:59:20.091Z,3.16
2023-03-29T11:02:19.126Z,3.76
2023-03-29T11:04:52.479Z,3.81
2023-03-29T11:07:32.146Z,3.95
2023-03-29T11:10:12.773Z,4.49
2023-03-29T11:13:25.291Z,4.05
2023-03-29T11:16:25.718Z,4.10
2023-03-29T11:19:25.724Z,4.50
2023-03-29T11:21:57.694Z,4.95
2023-03-29T11:25:08.683Z,5.06
2023-03-29T11:27:49.084Z,5.11
2023-03-29T11:30:31.838Z,5.23
2023-03-29T11:33:18.680Z,5.50
2023-03-29T11:36:18.232Z,5.82
2023-03-29T11:39:22.102Z,5.35
2023-03-29T11:41:56.320Z,4.67
2023-03-29T11:44:29.876Z,4.60
2023-03-29T11:47:29.030Z,4.88
2023-03-29T11:50:03.392Z,5.09
2023-03-29T11:52:43.743Z,5.71
2023-03-29T11:55:22.616Z,5.63
2023-03-29T11:58:06.906Z,5.93
2023-03-29T12:00:45.164Z,6.00
2023-03-29T12:03:32.485Z,5.95
2023-03-29T12:06:08.185Z,5.72
2023-03-29T12:08:49.071Z,5.92
2023-03-29T12:11:49.588Z,6.64
2023-03-29T12:14:27.897Z,6.63
2023-03-29T12:17:02.753Z,6.74
2023-03-29T12:20:00.990Z,6.60
2023-03-29T12:22:29.934Z,7.75
2023-03-29T12:25:00.093Z,7.72
2023-03-29T12:27:34.518Z,7.46
2023-03-29T12:30:11.002Z,8.40
2023-03-29T12:33:15.889Z,8.27
2023-03-29T12:36:11.512Z,7.43
2023-03-29T12:39:16.474Z,8.40
2023-03-29T12:42:21.301Z,7.86
2023-03-29T12:45:32.619Z,7.33
2023-03-29T12:48:01.814Z,8.02
2023-03-29T12:50:36.034Z,8.49
2023-03-29T12:53:23.028Z,9.49
2023-03-29T12:56:08.784Z,9.15
2023-03-29T12:58:40.728Z,8.80
2023-03-29T13:01:37.878Z,8.70
2023-03-29T13:04:22.674Z,9.25
2023-03-29T13:07:05.052Z,8.31
2023-03-29T13:09:53.023Z,8.80
2023-03-29T13:12:27.227Z,9.10
2023-03-29T13:15:16.915Z,8.86
2023-03-29T13:18:15.559Z,9.94
2023-03-29T13:20:44.386Z,9.30
2023-03-29T13:23:33.803Z,10.06
2023-03-29T13:26:21.502Z,9.58
2023-03-29T13:29:13.100Z,9.38
2023-03-29T13:31:54.046Z,9.56
2023-03-29T13:34:40.421Z,9.63
2023-03-29T13:37:28.077Z,10.17
2023-03-29T13:39:57.878Z,10.72
2023-03-29T13:42:36.272Z,10.30
2023-03-29T13:45:27.419Z,10.33
2023-03-29T13:48:29.770Z,10.77
2023-03-29T13:51:08.779Z,10.70
2023-03-29T13:53:49.941Z,10.99
2023-03-29T13:56:58.157Z,10.84
2023-03-29T13:59:42.620Z,10.48
2023-03-29T14:02:37.859Z,11.48
2023-03-29T14:05:14.267Z,11.85
2023-03-29T14:07:50.361Z,10.80
2023-03-29T14:10:27.485Z,9.65
2023-03-29T14:12:57.665Z,7.92
2023-03-29T14:15:39.113Z,8.42
2023-03-29T14:18:12.254Z,7.56
2023-03-29T14:20:44.064Z,7.51
2023-03-29T14:23:20.194Z,7.31
2023-03-29T14:25:48.507Z,7.78
2023-03-29T14:28:23.454Z,7.69
2023-03-29T14:30:52.926Z,7.23
2023-03-29T14:33:38.060Z,8.60
2023-03-29T14:36:07.009Z,9.32
2023-03-29T14:38:58.605Z,9.20
2023-03-29T14:41:32.174Z,9.48
2023-03-29T14:44:03.033Z,9.66
2023-03-29T14:46:34.030Z,9.48
2023-03-29T14:49:02.619Z,8.80
2023-03-29T14:51:31.471Z,8.98
2023-03-29T14:54:03.154Z,9.73
2023-03-29T14:56:33.161Z,10.13
2023-03-29T14:59:05.074Z,10.41
2023-03-29T15:01:44.723Z,10.55
2023-03-29T15:04:13.144Z,10.28
2023-03-29T15:06:45.382Z,10.93
2023-03-29T15:09:18.601Z,10.73
2023-03-29T15:12:06.812Z,10.42
2023-03-29T15:14:38.522Z,10.41
2023-03-29T15:17:43.050Z,10.49
2023-03-29T15:20:25.840Z,11.22
2023-03-29T15:22:56.394Z,10.79
2023-03-29T15:25:29.954Z,10.78
2023-03-29T15:28:00.244Z,10.57
2023-03-29T15:30:46.208Z,10.59
2023-03-29T15:33:24.270Z,10.59
2023-03-29T15:35:53.871Z,11.42
2023-03-29T15:38:27.680Z,11.48
2023-03-29T15:41:01.741Z,11.27
2023-03-29T15:43:31.225Z,10.84
2023-03-29T15:46:00.154Z,10.63
2023-03-29T15:48:30.027Z,10.16
2023-03-29T15:51:02.016Z,10.61
2023-03-29T15:53:32.007Z,10.86
2023-03-29T15:56:05.526Z,10.87
2023-03-29T15:58:35.728Z,10.74
2023-03-29T16:01:33.608Z,10.25
2023-03-29T16:04:06.855Z,9.88
2023-03-29T16:06:35.035Z,9.32
2023-03-29T16:09:05.237Z,9.68
2023-03-29T16:11:33.945Z,9.36
2023-03-29T16:14:02.888Z,9.35
2023-03-29T16:16:31.134Z,8.72
2023-03-29T16:18:59.226Z,7.97
2023-03-29T16:21:27.269Z,7.65
2023-03-29T16:23:55.413Z,7.65
2023-03-29T16:26:26.268Z,8.27
2023-03-29T16:28:54.511Z,7.86
2023-03-29T16:31:24.894Z,7.28
2023-03-29T16:33:53.857Z,5.86
2023-03-29T16:36:22.890Z,5.34
2023-03-29T16:38:52.814Z,4.97
2023-03-29T16:41:21.572Z,4.52
2023-03-29T16:43:52.749Z,4.20
2023-03-29T16:46:21.573Z,3.81
2023-03-29T16:48:51.621Z,3.56
2023-03-29T16:51:21.883Z,3.40
2023-03-29T16:53:51.556Z,3.16
2023-03-29T16:56:19.903Z,2.93
2023-03-29T16:58:48.905Z,2.80
2023-03-29T17:01:17.316Z,2.64
2023-03-29T17:03:48.184Z,2.51
2023-03-29T17:06:18.596Z,2.37
2023-03-29T17:08:46.938Z,2.27
2023-03-29T17:11:16.118Z,2.15
2023-03-29T17:13:45.130Z,2.05
2023-03-29T17:16:13.495Z,1.94
2023-03-29T17:18:44.943Z,1.85
2023-03-29T17:21:13.136Z,1.77
2023-03-29T17:23:42.041Z,1.68
2023-03-29T17:26:12.043Z,1.62
2023-03-29T17:28:40.316Z,1.53
2023-03-29T17:31:09.358Z,1.47
2023-03-29T17:33:37.673Z,1.40
2023-03-29T17:36:06.818Z,1.35
2023-03-29T17:38:36.158Z,1.29
2023-03-29T17:41:04.649Z,1.25
2023-03-29T17:43:33.113Z,1.21
2023-03-29T17:46:01.513Z,1.17
2023-03-29T17:48:30.078Z,1.13
2023-03-29T17:50:58.189Z,1.08
2023-03-29T17:53:28.085Z,1.04
2023-03-29T17:55:56.366Z,0.99
2023-03-29T17:58:24.654Z,0.94
2023-03-29T18:00:52.804Z,0.90
2023-03-29T18:03:23.007Z,0.86
2023-03-29T18:05:51.336Z,0.81
2023-03-29T18:08:23.238Z,0.75
2023-03-29T18:10:51.805Z,0.71
2023-03-29T18:13:26.233Z,0.66
2023-03-29T18:15:56.845Z,0.62
2023-03-29T18:18:25.378Z,0.57
2023-03-29T18:20:53.542Z,0.52
2023-03-29T18:23:22.710Z,0.46
2023-03-29T18:25:51.195Z,0.43
2023-03-29T18:28:22.080Z,0.38
2023-03-29T18:30:52.788Z,0.37
2023-03-29T18:33:23.541Z,0.35
2023-03-29T18:35:52.986Z,0.32
2023-03-29T18:38:22.782Z,0.28
2023-03-29T18:40:51.624Z,0.24
2023-03-29T18:43:19.654Z,0.18
2023-03-29T18:45:47.845Z,0.12
2023-03-29T18:48:16.142Z,0.06
2023-03-29T18:50:46.996Z,0.00
2023-03-29T18:53:15.363Z,-0.02
2023-03-29T18:55:45.177Z,-0.03
2023-03-29T18:58:15.185Z,-0.06
2023-03-29T19:00:44.251Z,-0.07
2023-03-29T19:03:14.149Z,-0.07
2023-03-29T19:05:42.463Z,-0.07
2023-03-29T19:08:11.219Z,-0.08
2023-03-29T19:10:39.503Z,-0.07
2023-03-29T19:13:07.530Z,-0.07
2023-03-29T19:15:35.876Z,-0.10
2023-03-29T19:18:03.990Z,-0.16
2023-03-29T19:20:32.486Z,-0.22
2023-03-29T19:23:06.311Z,-0.26
2023-03-29T19:25:37.291Z,-0.31
2023-03-29T19:28:06.265Z,-0.35
2023-03-29T19:30:36.024Z,-0.41
2023-03-29T19:33:04.110Z,-0.45
2023-03-29T19:35:34.853Z,-0.48
2023-03-29T19:38:03.270Z,-0.53
2023-03-29T19:40:31.402Z,-0.58
2023-03-29T19:43:01.838Z,-0.64
2023-03-29T19:45:30.515Z,-0.71
2023-03-29T19:48:03.027Z,-0.75
2023-03-29T19:50:32.080Z,-0.80
2023-03-29T19:53:00.929Z,-0.85
2023-03-29T19:55:29.503Z,-0.89
2023-03-29T19:57:57.817Z,-0.91
2023-03-29T20:00:26.227Z,-0.97
2023-03-29T20:02:56.732Z,-1.03
2023-03-29T20:05:25.214Z,-1.10
2023-03-29T20:07:54.442Z,-1.15
2023-03-29T20:10:22.430Z,-1.18
2023-03-29T20:12:51.076Z,-1.23
2023-03-29T20:15:19.267Z,-1.27
2023-03-29T20:17:47.474Z,-1.31
2023-03-29T20:20:15.607Z,-1.39
2023-03-29T20:22:45.457Z,-1.43
2023-03-29T20:25:14.025Z,-1.46
2023-03-29T20:27:42.844Z,-1.48
2023-03-29T20:30:11.773Z,-1.50
2023-03-29T20:32:39.736Z,-1.53
2023-03-29T20:35:08.037Z,-1.53
2023-03-29T20:37:36.352Z,-1.53
2023-03-29T20:40:05.609Z,-1.56
2023-03-29T20:42:34.693Z,-1.59
2023-03-29T20:45:03.414Z,-1.64
2023-03-29T20:47:31.584Z,-1.70
2023-03-29T20:50:01.599Z,-1.76
2023-03-29T20:52:29.700Z,-1.82
2023-03-29T20:54:59.273Z,-1.87
2023-03-29T20:57:29.951Z,-1.91
2023-03-29T20:59:59.204Z,-1.97
2023-03-29T21:02:27.549Z,-2.03
2023-03-29T21:05:00.526Z,-2.07
2023-03-29T21:07:28.700Z,-2.14
2023-03-29T21:09:56.780Z,-2.18
2023-03-29T21:12:25.693Z,-2.23
2023-03-29T21:14:53.706Z,-2.26
2023-03-29T21:17:21.772Z,-2.32
2023-03-29T21:19:49.801Z,-2.37
2023-03-29T21:22:18.362Z,-2.44
2023-03-29T21:24:46.353Z,-2.49
2023-03-29T21:27:14.393Z,-2.53
2023-03-29T21:29:42.345Z,-2.57
2023-03-29T21:32:11.184Z,-2.60
2023-03-29T21:34:41.544Z,-2.63
2023-03-29T21:37:09.571Z,-2.65
2023-03-29T21:39:37.630Z,-2.69
2023-03-29T21:42:06.212Z,-2.73
2023-03-29T21:44:34.520Z,-2.77
2023-03-29T21:47:06.909Z,-2.81
2023-03-29T21:49:35.394Z,-2.84
2023-03-29T21:52:03.546Z,-2.86
2023-03-29T21:54:31.960Z,-2.88
2023-03-29T21:57:01.457Z,-2.88
2023-03-29T21:59:29.514Z,-2.88
2023-03-29T22:01:57.763Z,-2.89
2023-03-29T22:04:35.700Z,-2.89
2023-03-29T22:07:05.810Z,-2.92
2023-03-29T22:09:37.818Z,-2.95
2023-03-29T22:12:06.058Z,-2.96
2023-03-29T22:14:37.352Z,-2.98
2023-03-29T22:17:06.287Z,-3.00
2023-03-29T22:19:41.802Z,-3.03
2023-03-29T22:22:14.003Z,-3.07
2023-03-29T22:24:42.501Z,-3.10
2023-03-29T22:27:11.730Z,-3.13
2023-03-29T22:29:39.914Z,-3.15
2023-03-29T22:32:07.868Z,-3.16
2023-03-29T22:34:36.898Z,-3.17
2023-03-29T22:37:05.396Z,-3.18
2023-03-29T22:39:36.910Z,-3.18
2023-03-29T22:42:04.989Z,-3.19
2023-03-29T22:44:34.001Z,-3.20
2023-03-29T22:47:02.453Z,-3.22
2023-03-29T22:49:30.556Z,-3.23
2023-03-29T22:51:59.711Z,-3.25
2023-03-29T22:54:28.871Z,-3.29
2023-03-29T22:56:58.305Z,-3.31
2023-03-29T22:59:26.990Z,-3.34
2023-03-29T23:01:55.029Z,-3.37
2023-03-29T23:04:23.534Z,-3.39
2023-03-29T23:06:51.672Z,-3.41
2023-03-29T23:09:19.842Z,-3.42
2023-03-29T23:11:47.827Z,-3.44
2023-03-29T23:14:15.756Z,-3.46
2023-03-29T23:16:43.933Z,-3.47
2023-03-29T23:19:11.996Z,-3.49
2023-03-29T23:21:40.599Z,-3.52
2023-03-29T23:24:08.642Z,-3.55
2023-03-29T23:26:37.700Z,-3.59
2023-03-29T23:29:05.654Z,-3.64
2023-03-29T23:31:34.081Z,-3.67
2023-03-29T23:34:03.208Z,-3.72
2023-03-29T23:36:31.693Z,-3.76
2023-03-29T23:38:59.827Z,-3.79
2023-03-29T23:41:28.382Z,-3.83
2023-03-29T23:43:58.139Z,-3.88
2023-03-29T23:46:26.248Z,-3.92
2023-03-29T23:48:54.249Z,-3.96
2023-03-29T23:51:23.356Z,-3.99
2023-03-29T23:53:51.868Z,-4.03
2023-03-29T23:56:21.696Z,-4.07
2023-03-29T23:58:49.979Z,-4.10
